Aviation Digital Data Service (ADDS)

Output produced by METARs form (0723 UTC 24 March 2019)
found at http://www.aviationweather.gov/metar/data/
 
K20U 240715Z AUTO 15009KT 8SM OVC075 03/03 A3003 RMK AO2
KBIS 240652Z AUTO 00000KT 8SM BKN070 01/00 A3009 RMK AO2 SLP204 T00110000
KBIS 240542Z 2406/2506 VRB05KT P6SM OVC040 
     FM241000 05008KT 1SM BR VCSH OVC003 
     FM241400 05011G18KT P6SM VCSH OVC008 
     FM241900 06011KT P6SM OVC013
       
K9D7 240715Z AUTO 04019G27KT 10SM BKN011 OVC036 M00/M00 A3018 RMK AO2
K46D 240715Z AUTO 01008KT 5SM BR CLR M01/M01 A3014 RMK AO2
K2C8 240715Z AUTO 35015G20KT 10SM OVC055 M01/M03 A3020 RMK AO2
KS32 240715Z AUTO 03009KT 7SM CLR M01/M01 A3011 RMK AO2
KD50 240715Z AUTO 08021G30KT 10SM OVC013 00/00 A3016 RMK AO2
KDVL 240656Z AUTO 04020G24KT 10SM CLR M01/M02 A3014 RMK AO2 SLP240 T10061017 FZRANO
KDVL 240701Z 2407/2506 04015G24KT P6SM BKN035 
     FM241100 04016KT P6SM OVC018 
     FM241600 04016KT P6SM BKN100 
     FM250200 05006KT P6SM FEW250
       
KDIK 240656Z AUTO 18008KT 4SM BR CLR 01/00 A3002 RMK AO2 SLP179 T00110000 401001011
KDIK 240702Z 2407/2506 11005KT 3SM BR OVC022 
     FM241000 09007KT 1/2SM FG VCSH OVC002 
     FM241600 09010KT 2SM BR VCSH OVC004 
     FM242100 08012KT P6SM VCSH OVC006
       
KFAR 240654Z 00000KT 4SM BR CLR M03/M03 A3010 RMK AO2 I1000 T10281028
KFAR 240700Z 2407/2506 18003KT 4SM BR SCT250 
     TEMPO 2407/2409 1 1/2SM BR 
     FM241100 01007KT P6SM BKN027 
     FM242100 02015G23KT P6SM OVC050 
     FM250500 02006KT P6SM FEW250
       
KD57 240715Z AUTO 00000KT 9SM BKN060 OVC075 01/M00 A3007 RMK AO2 PWINO
KGAF 240715Z AUTO 36019KT 10SM OVC055 00/M00 A3018 RMK AO2 PWINO
KGFK 240653Z AUTO 01013KT 10SM CLR 00/M02 A3013 RMK AO2 SLP214 T00001017
KGFK 240522Z 2406/2506 35004KT P6SM BKN050 
     FM240900 36011KT P6SM BKN035 
     FM241500 02017G26KT P6SM BKN025 
     FM241600 02017G25KT P6SM SCT100
       
KGWR 240715Z AUTO 00000KT 9SM M01/M02 A3008 RMK A01
K5H4 240715Z AUTO 05015KT 10SM -UP FEW011 OVC025 M00/M00 A3016 RMK AO2
KHZE 240715Z AUTO 00000KT 9SM BKN065 OVC070 02/02 A3010 RMK AO2 TSNO
KHEI 240653Z AUTO 00000KT 7SM CLR 02/01 A3005 RMK AO2 SLP192 T00220011 400891028
KJMS 240656Z AUTO 34006KT 7SM CLR M02/M03 A3009 RMK AO2 SLP205 T10171028
KJMS 240704Z 2407/2506 34005KT 6SM BR BKN150 
     FM240800 01008KT 2SM BR OVC005 
     FM241100 02011G20KT 5SM BR OVC015 
     FM250100 04011KT P6SM SCT080
       
KD55 240715Z AUTO 03024G30KT 10SM OVC007 M01/M01 A3017 RMK AO2
K7L2 240715Z AUTO 00000KT 7SM 01/01 A3009 RMK AO2
KY19 240715Z AUTO 00000KT 10SM BKN055 OVC070 01/01 A3008 RMK AO2
KMOT 240654Z AUTO 05013G23KT 10SM OVC025 02/M01 A3015 RMK AO2 SLP222 T00221006
KMOT 240659Z 2407/2506 05009G22KT P6SM BKN020 
     FM240800 06011G19KT P6SM VCSH OVC008 
     FM241600 05011KT P6SM BKN018 
     FM242000 06010KT P6SM BKN050
       
K2D5 240715Z AUTO 33004KT 4SM BR FEW042 BKN055 M02/M02 A3009 RMK AO2 PWINO
K06D 240715Z AUTO 03017G26KT 10SM BKN011 OVC039 M03/M02 A3020 RMK AO2
KRUG 240715Z AUTO 05025KT 10SM BKN010 OVC060 M01/M01 A3015 RMK AO2
K08D 240715Z AUTO 06014G22KT 10SM OVC004 00/00 A3013 RMK AO2
KD60 240715Z AUTO 07019G26KT 10SM OVC006 00/00 A3012 RMK AO2
KBAC 240715Z AUTO 34004KT 5SM BR CLR M02/M02 A3011 RMK AO2
KBWP 240715Z AUTO 02006KT 1/2SM SCT001 BKN065 M01/M02 A3010 RMK AO1
K96D 240715Z AUTO 36014KT 10SM OVC014 M01/M01 A3023 RMK AO2
KS25 240715Z AUTO 08007KT 10SM OVC029 04/04 A3006 RMK AO2
KISN 240720Z AUTO 08014G23KT 10SM BKN028 OVC038 04/01 A3007 RMK AO2 T00390011
KISN 240700Z 2407/2506 08009G22KT P6SM VCSH OVC030 
     FM240900 08011KT P6SM VCSH OVC009 
     FM250100 09010KT P6SM OVC015